Time;durP1;ratioP1;P1;durP2;ratioP2;P2;SDS_P1;SDS_P2;PMS_P1;PMS_P2;Temp;Humidity;BMP_temperature;BMP_pressure;BME280_temperature;BME280_humidity;BME280_pressure;Samples;Min_cycle;Max_cycle;Signal;HPM_P1;HPM_P2
2023/12/04 00:00:07;;;;;;;3.05;1.02;;;;;;;5.03;66.69;99089.78;5033938;28;20543;-93
2023/12/04 00:02:33;;;;;;;2.55;1.10;;;;;;;5.62;66.54;99184.69;5032637;28;20458;-91
2023/12/04 00:04:59;;;;;;;4.25;1.33;;;;;;;4.72;66.36;99026.50;5023777;28;20050;-93
2023/12/04 00:07:35;;;;;;;2.42;1.15;;;;;;;4.65;66.89;99039.66;5033102;28;20080;-94
2023/12/04 00:10:02;;;;;;;2.83;1.52;;;;;;;5.25;67.21;99147.78;5033029;28;20046;-92
2023/12/04 00:12:31;;;;;;;2.25;1.20;;;;;;;5.61;66.97;99222.50;5032115;28;20045;-93
2023/12/04 00:14:57;;;;;;;3.55;1.42;;;;;;;4.99;67.53;99114.34;5032218;28;20049;-92
2023/12/04 00:17:33;;;;;;;4.72;1.52;;;;;;;4.82;66.71;99064.28;5032166;28;20061;-93
2023/12/04 00:20:03;;;;;;;2.70;1.30;;;;;;;4.44;66.61;99014.19;5031897;28;20045;-92
2023/12/04 00:22:28;;;;;;;2.42;0.93;;;;;;;5.20;66.60;99147.75;5032487;28;20049;-92
2023/12/04 00:25:06;;;;;;;3.78;1.40;;;;;;;4.63;66.55;99044.94;5032052;28;20041;-90
2023/12/04 00:27:37;;;;;;;1.92;1.10;;;;;;;5.32;66.73;99160.06;5024766;28;20080;-92
2023/12/04 00:30:09;;;;;;;3.20;1.23;;;;;;;5.59;66.52;99197.88;5030997;28;20518;-93
2023/12/04 00:33:09;;;;;;;3.78;1.02;;;;;;;4.68;66.40;99035.28;5031939;28;20034;-93
2023/12/04 00:35:37;;;;;;;2.60;1.27;;;;;;;4.72;66.20;99046.69;5033331;28;20044;-94
2023/12/04 00:38:03;;;;;;;2.95;1.42;;;;;;;5.50;66.62;99212.81;5032346;28;20045;-93
2023/12/04 00:40:34;;;;;;;2.28;1.30;;;;;;;4.68;66.02;99052.84;5032507;28;20185;-93
2023/12/04 00:43:02;;;;;;;4.80;1.38;;;;;;;4.67;66.21;99045.81;5031931;28;20136;-92
2023/12/04 00:45:37;;;;;;;3.75;1.52;;;;;;;5.18;65.60;99099.41;5031584;28;20100;-90
2023/12/04 00:48:03;;;;;;;1.63;1.00;;;;;;;5.55;65.31;99158.31;5015402;28;20487;-93
2023/12/04 00:50:29;;;;;;;1.80;1.20;;;;;;;5.96;65.30;99236.59;5015865;28;20048;-92
2023/12/04 00:52:55;;;;;;;4.07;1.45;;;;;;;5.61;65.42;99202.25;5024140;28;20133;-92
2023/12/04 00:55:21;;;;;;;1.65;0.75;;;;;;;5.74;64.80;99185.53;5032129;28;20045;-94
2023/12/04 00:57:51;;;;;;;2.63;1.27;;;;;;;4.78;65.07;99066.91;5032388;28;20037;-92
2023/12/04 01:00:17;;;;;;;2.00;1.10;;;;;;;5.76;65.02;99233.03;5031991;28;20136;-91
2023/12/04 01:02:49;;;;;;;2.83;1.23;;;;;;;5.99;64.79;99263.88;5016144;28;20045;-91
2023/12/04 01:05:15;;;;;;;2.95;1.02;;;;;;;5.08;64.73;99103.81;5032703;28;20137;-92
2023/12/04 01:07:43;;;;;;;2.78;1.10;;;;;;;5.88;64.70;99269.13;5032019;28;20041;-92
2023/12/04 01:10:12;;;;;;;2.55;1.00;;;;;;;5.13;65.06;99149.50;5034523;28;20037;-92
2023/12/04 01:12:43;;;;;;;2.67;0.95;;;;;;;4.76;64.91;99048.44;5036328;28;20499;-92
2023/12/04 01:15:15;;;;;;;3.55;1.35;;;;;;;4.62;65.10;99048.44;5053023;28;20048;-92
2023/12/04 01:17:41;;;;;;;4.18;0.82;;;;;;;4.87;64.55;99093.25;5018587;28;20095;-92
2023/12/04 01:20:13;;;;;;;2.75;1.15;;;;;;;4.96;63.73;99058.13;5035875;28;20392;-93
2023/12/04 01:22:42;;;;;;;2.72;1.10;;;;;;;5.01;63.74;99095.88;5035709;28;20080;-93
2023/12/04 01:25:10;;;;;;;2.40;0.88;;;;;;;5.15;63.84;99102.06;5035232;28;20045;-93
2023/12/04 01:27:37;;;;;;;2.08;0.85;;;;;;;5.50;63.57;99156.53;5035784;28;20095;-93
2023/12/04 01:30:10;;;;;;;4.88;1.17;;;;;;;5.37;63.42;99141.59;5034421;28;20045;-92
2023/12/04 01:32:41;;;;;;;2.35;1.02;;;;;;;4.58;64.04;99057.22;5035341;28;20045;-91
2023/12/04 01:35:24;;;;;;;3.13;1.40;;;;;;;4.39;64.26;99029.97;5034806;28;20045;-93
2023/12/04 01:37:59;;;;;;;1.90;0.90;;;;;;;4.82;64.39;99108.19;5035156;28;20403;-92
2023/12/04 01:44:07;;;;;;;2.58;0.80;;;;;;;5.79;62.76;99213.69;5011135;28;20042;-94
2023/12/04 01:46:58;;;;;;;1.38;0.88;;;;;;;4.66;63.67;99041.41;5032971;28;20403;-94
2023/12/04 01:50:09;;;;;;;1.92;1.30;;;;;;;5.64;64.51;99248.88;4910399;29;20501;-93
2023/12/04 01:52:39;;;;;;;2.55;0.82;;;;;;;4.73;63.85;99066.91;4916540;29;20035;-95
2023/12/04 01:55:10;;;;;;;2.30;1.35;;;;;;;5.51;63.92;99192.63;4935820;29;20048;-93
2023/12/04 01:57:50;;;;;;;1.70;0.82;;;;;;;5.12;63.60;99117.88;4918025;29;20040;-94
2023/12/04 02:00:25;;;;;;;1.35;0.93;;;;;;;4.31;63.61;98985.19;4934109;29;20048;-92
2023/12/04 02:05:47;;;;;;;1.98;0.98;;;;;;;5.02;63.85;99118.75;4945459;29;20047;-93
2023/12/04 02:08:22;;;;;;;1.77;0.85;;;;;;;5.69;64.02;99228.66;4923453;29;20057;-94
2023/12/04 02:10:56;;;;;;;2.28;1.30;;;;;;;4.81;63.53;99077.44;4901464;29;20144;-93
2023/12/04 02:13:28;;;;;;;1.95;1.02;;;;;;;5.70;63.36;99227.75;4991882;28;20061;-92
2023/12/04 02:16:09;;;;;;;2.45;1.13;;;;;;;4.74;62.24;99052.84;5001576;28;20057;-93
2023/12/04 02:18:48;;;;;;;1.83;0.88;;;;;;;4.61;62.78;99030.00;5016015;28;20042;-94
2023/12/04 02:21:16;;;;;;;4.35;1.60;;;;;;;5.14;63.24;99118.75;5007018;28;20503;-93
2023/12/04 02:23:49;;;;;;;2.38;0.70;;;;;;;5.80;62.71;99224.25;5004478;28;20484;-93
2023/12/04 02:29:44;;;;;;;1.58;0.70;;;;;;;5.89;61.91;99207.53;5001324;28;20496;-93
2023/12/04 02:32:49;;;;;;;1.40;0.77;;;;;;;6.00;61.72;99207.53;5007860;28;20059;-92
2023/12/04 02:35:38;;;;;;;2.20;0.95;;;;;;;5.93;62.85;99177.59;5000262;28;20057;-92
2023/12/04 02:38:13;;;;;;;1.98;0.85;;;;;;;5.33;63.80;99078.34;4994166;28;20488;-94
2023/12/04 02:44:51;;;;;;;2.47;1.00;;;;;;;5.72;64.18;99200.50;4969145;28;20125;-91
2023/12/04 02:47:54;;;;;;;;;;;;;;;;;;;;;
2023/12/04 02:50:48;;;;;;;1.45;0.80;;;;;;;5.45;66.25;99161.81;5002756;28;20053;-93
2023/12/04 02:53:16;;;;;;;2.17;1.02;;;;;;;4.74;67.25;99058.13;4998064;28;20403;-92
2023/12/04 02:55:42;;;;;;;2.25;1.13;;;;;;;4.42;69.90;99037.00;4998468;28;20125;-92
2023/12/04 02:58:34;;;;;;;;;;;;;;;;;;;;;
2023/12/04 03:01:15;;;;;;;1.73;0.73;;;;;;;4.03;70.94;99012.31;4995046;28;20046;-94
2023/12/04 03:04:10;;;;;;;2.03;0.85;;;;;;;4.38;72.11;99098.41;5005019;28;20056;-92
2023/12/04 03:06:39;;;;;;;2.53;1.40;;;;;;;4.73;74.22;99177.56;5001424;28;20041;-92
2023/12/04 03:09:23;;;;;;;9.27;1.98;;;;;;;3.84;73.55;99016.66;5000099;28;20133;-94
2023/12/04 03:12:01;;;;;;;4.25;1.58;;;;;;;4.22;74.04;99087.84;5014337;28;20076;-92
2023/12/04 03:14:35;;;;;;;3.67;1.75;;;;;;;4.92;73.95;99210.06;4999098;28;20042;-94
2023/12/04 03:17:13;;;;;;;3.13;1.20;;;;;;;3.54;74.84;98975.34;5008069;28;20518;-92
2023/12/04 03:19:56;;;;;;;;;;;;;;;;;;;;;
2023/12/04 03:22:30;;;;;;;2.20;1.23;;;;;;;4.04;74.89;99074.63;5020494;28;20092;-93
2023/12/04 03:24:59;;;;;;;3.33;1.27;;;;;;;4.50;75.22;99195.91;5012480;28;20053;-92
2023/12/04 03:27:47;;;;;;;1.75;1.13;;;;;;;3.24;75.31;98982.19;5012048;28;20088;-92
2023/12/04 03:30:25;;;;;;;3.08;1.20;;;;;;;4.10;75.88;99143.09;4997555;28;20041;-93
2023/12/04 03:33:02;;;;;;;3.50;1.17;;;;;;;3.23;77.04;99048.75;4997026;28;20061;-92
2023/12/04 03:35:31;;;;;;;3.30;1.40;;;;;;;2.91;77.79;99004.75;4997292;28;20141;-93
2023/12/04 03:38:00;;;;;;;3.25;1.42;;;;;;;2.96;77.67;99012.66;4997235;28;20507;-93
2023/12/04 03:40:39;;;;;;;;;;;;;;;;;;;;;
2023/12/04 03:43:22;;;;;;;4.07;1.40;;;;;;;3.93;78.97;99208.75;4990997;28;20041;-92
2023/12/04 03:46:13;;;;;;;2.70;1.35;;;;;;;2.60;78.82;99006.22;4997001;28;20060;-94
2023/12/04 03:49:11;;;;;;;2.60;1.20;;;;;;;2.50;79.16;98981.66;4997295;28;20471;-93
2023/12/04 03:51:47;;;;;;;3.67;1.42;;;;;;;3.33;79.44;99107.53;5010644;28;20045;-92
2023/12/04 03:54:15;;;;;;;3.10;1.48;;;;;;;2.33;81.13;99013.00;5032677;28;20053;-93
2023/12/04 03:57:10;;;;;;;2.30;1.33;;;;;;;3.23;80.61;99145.97;5016116;28;20108;-92
2023/12/04 03:59:46;;;;;;;;;;;;;;;;;;;;;
2023/12/04 04:05:14;;;;;;;3.90;1.75;;;;;;;3.21;82.66;99155.59;5032475;28;20047;-92
2023/12/04 04:07:46;;;;;;;1.98;0.95;;;;;;;2.10;82.91;98981.28;5032722;28;20490;-92
2023/12/04 04:10:16;;;;;;;4.28;1.45;;;;;;;1.89;84.22;98960.06;5032410;28;20136;-95
2023/12/04 04:12:48;;;;;;;5.38;1.38;;;;;;;2.12;84.84;99054.75;5031980;28;20049;-91
2023/12/04 04:15:29;;;;;;;2.50;1.67;;;;;;;2.33;87.39;99088.22;5033189;28;20072;-90
2023/12/04 04:18:09;;;;;;;2.83;1.90;;;;;;;1.41;88.11;98978.75;5017592;28;20476;-94
2023/12/04 04:20:44;;;;;;;2.33;1.27;;;;;;;2.49;88.00;99105.00;5033586;28;20565;-92
2023/12/04 04:23:47;;;;;;;2.80;1.23;;;;;;;1.89;87.53;98983.66;5033341;28;20046;-92
2023/12/04 04:26:19;;;;;;;3.38;1.23;;;;;;;2.02;86.32;98994.31;5030852;28;20057;-92
2023/12/04 04:31:51;;;;;;;1.75;1.23;;;;;;;2.68;85.44;99096.47;5023364;28;20042;-92
2023/12/04 04:34:20;;;;;;;2.38;0.93;;;;;;;2.88;84.16;99100.16;5023920;28;20057;-92
2023/12/04 04:37:03;;;;;;;2.03;0.93;;;;;;;2.59;84.76;99064.88;5033616;28;20041;-91
2023/12/04 04:39:48;;;;;;;3.35;1.50;;;;;;;2.89;84.10;99111.56;5033335;28;20045;-92
2023/12/04 04:42:25;;;;;;;3.15;1.50;;;;;;;3.41;82.66;99198.72;5033048;28;20411;-92
2023/12/04 04:44:58;;;;;;;2.72;1.65;;;;;;;1.89;83.54;99010.78;5035156;28;20041;-92
2023/12/04 04:47:36;;;;;;;5.03;2.05;;;;;;;1.96;84.97;99030.97;5020424;28;20038;-93
2023/12/04 04:50:17;;;;;;;2.65;1.25;;;;;;;2.03;84.90;99031.91;5035996;28;20049;-91
2023/12/04 04:52:49;;;;;;;3.78;1.25;;;;;;;1.72;86.97;99015.84;5017109;28;20057;-92
2023/12/04 04:55:21;;;;;;;2.45;1.48;;;;;;;3.13;85.63;99220.38;5036508;28;20041;-92
2023/12/04 04:57:54;;;;;;;1.98;1.08;;;;;;;2.99;84.53;99171.19;5034284;28;20124;-92
2023/12/04 05:00:33;;;;;;;3.08;1.50;;;;;;;1.76;85.94;99041.22;5036214;28;20574;-92
2023/12/04 05:03:11;;;;;;;2.92;1.27;;;;;;;2.32;86.07;99092.59;5017594;28;20530;-93
2023/12/04 05:05:41;;;;;;;1.85;1.15;;;;;;;2.31;84.76;99061.09;5020009;28;20140;-92
2023/12/04 05:09:04;;;;;;;4.07;1.52;;;;;;;2.95;84.81;99190.41;5033095;28;20037;-94
2023/12/04 05:11:40;;;;;;;2.05;1.05;;;;;;;2.58;83.77;99105.09;5015040;28;20136;-94
2023/12/04 05:14:16;;;;;;;3.58;1.00;;;;;;;1.97;84.69;99021.34;5019513;28;20388;-94
2023/12/04 05:17:09;;;;;;;3.08;1.40;;;;;;;2.15;86.16;99102.03;5035836;28;20049;-93
2023/12/04 05:20:01;;;;;;;;;;;;;;;;;;;;;
2023/12/04 05:22:32;;;;;;;1.95;1.02;;;;;;;2.34;86.58;99113.59;5034287;28;20042;-93
2023/12/04 05:25:06;;;;;;;3.13;1.92;;;;;;;2.17;85.37;99060.91;5020962;28;20075;-91
2023/12/04 05:27:39;;;;;;;2.78;1.13;;;;;;;2.76;85.92;99172.72;5035187;28;20083;-94
2023/12/04 05:30:13;;;;;;;3.40;0.95;;;;;;;1.99;84.63;99019.63;5031286;28;20048;-92
2023/12/04 05:32:54;;;;;;;2.45;1.17;;;;;;;2.95;84.23;99185.16;5028312;28;20042;-92
2023/12/04 05:35:42;;;;;;;2.17;1.17;;;;;;;1.82;84.17;99022.97;5039445;28;20075;-91
2023/12/04 05:38:14;;;;;;;3.03;1.50;;;;;;;1.98;85.26;99062.47;5039737;28;20095;-92
2023/12/04 05:40:56;;;;;;;5.35;1.88;;;;;;;1.92;87.11;99084.25;5038609;28;20131;-90
2023/12/04 05:43:36;;;;;;;3.95;1.92;;;;;;;1.83;87.86;99061.41;5019380;28;20099;-92
2023/12/04 05:46:09;;;;;;;3.88;1.65;;;;;;;2.29;87.38;99112.66;5025929;28;20037;-92
2023/12/04 05:48:55;;;;;;;5.10;1.92;;;;;;;2.05;86.10;99065.16;5039180;28;20140;-92
2023/12/04 05:51:47;;;;;;;;;;;;;;;;;;;;;
2023/12/04 05:54:19;;;;;;;5.25;2.53;;;;;;;3.16;86.51;99280.81;5038861;28;20095;-93
2023/12/04 05:56:49;;;;;;;5.45;1.98;;;;;;;2.32;87.20;99142.47;5039116;28;20623;-92
2023/12/04 06:02:33;;;;;;;7.57;2.70;;;;;;;0.80;100.00;99036.38;5017652;28;20506;-94
2023/12/04 06:05:03;;;;;;;5.07;1.83;;;;;;;2.15;100.00;99249.81;5041609;28;20045;-94
2023/12/04 06:07:40;;;;;;;6.18;2.53;;;;;;;1.30;100.00;99051.09;5039689;28;20049;-92
2023/12/04 06:10:09;;;;;;;5.03;2.13;;;;;;;2.45;98.09;99199.50;5039025;28;20045;-93
2023/12/04 06:12:51;;;;;;;4.03;1.95;;;;;;;1.96;98.15;99127.13;5038071;28;20399;-94
2023/12/04 06:15:58;;;;;;;5.78;2.05;;;;;;;1.48;97.28;99052.22;5042021;28;20044;-95
2023/12/04 06:18:33;;;;;;;7.13;2.97;;;;;;;2.54;98.82;99234.56;5039766;28;20470;-92
2023/12/04 06:21:18;;;;;;;5.53;2.28;;;;;;;1.51;99.79;99062.72;5040403;28;20131;-94
2023/12/04 06:23:50;;;;;;;4.97;2.58;;;;;;;1.28;98.98;99039.72;5029835;28;20041;-94
2023/12/04 06:26:29;;;;;;;3.17;1.73;;;;;;;1.41;99.40;99067.84;5041208;28;20034;-96
2023/12/04 06:29:02;;;;;;;5.95;2.42;;;;;;;2.66;100.00;99280.25;5063023;28;20132;-93
2023/12/04 06:33:18;;;;;;;3.88;2.33;;;;;;;1.71;99.38;99120.66;5047097;28;20045;-93
2023/12/04 06:34:59;;;;;;;6.68;2.88;;;;;;;2.12;100.00;99170.19;5027568;28;20041;-94
2023/12/04 06:37:58;;;;;;;4.78;2.42;;;;;;;1.72;99.51;99067.41;5048124;28;20055;-94
2023/12/04 06:43:42;;;;;;;5.03;2.17;;;;;;;1.67;97.18;99027.09;4987735;28;20051;-92
2023/12/04 06:46:19;;;;;;;8.32;2.60;;;;;;;2.80;96.63;99217.41;4972327;28;20051;-94
2023/12/04 06:49:06;;;;;;;5.53;2.67;;;;;;;1.87;97.00;99061.47;4976740;28;20222;-92
2023/12/04 06:51:40;;;;;;;6.10;2.72;;;;;;;2.48;97.34;99146.13;4971870;28;20050;-91
2023/12/04 06:54:19;;;;;;;4.53;2.45;;;;;;;2.37;96.73;99104.03;4973891;28;20043;-93
2023/12/04 06:56:46;;;;;;;7.55;2.97;;;;;;;2.33;96.41;99067.22;4986554;28;20110;-92
2023/12/04 06:59:15;;;;;;;5.60;2.58;;;;;;;2.33;97.00;99070.72;4992624;28;20592;-93
2023/12/04 07:01:47;;;;;;;8.38;2.85;;;;;;;2.29;96.58;99045.31;4974031;28;20130;-92
2023/12/04 07:04:21;;;;;;;4.75;2.63;;;;;;;2.64;96.94;99102.53;4970259;28;20441;-93
2023/12/04 07:07:05;;;;;;;5.93;3.03;;;;;;;2.36;98.25;99039.25;4970555;28;20457;-92
2023/12/04 07:09:39;;;;;;;7.60;3.28;;;;;;;3.56;98.62;99220.78;4972094;28;20039;-93
2023/12/04 07:12:08;;;;;;;5.28;2.75;;;;;;;2.49;97.41;99021.00;4975645;28;20096;-92
2023/12/04 07:14:41;;;;;;;9.75;4.03;;;;;;;2.77;95.32;99054.53;5024124;28;20048;-93
2023/12/04 07:17:12;;;;;;;6.70;3.38;;;;;;;2.53;94.09;99022.81;5048384;28;20052;-92
2023/12/04 07:20:28;;;;;;;5.68;3.13;;;;;;;3.98;94.80;99256.16;5040397;28;20033;-92
2023/12/04 07:23:01;;;;;;;6.00;2.92;;;;;;;2.89;92.89;99056.38;5047148;28;20041;-91
2023/12/04 07:25:30;;;;;;;8.10;3.10;;;;;;;3.21;91.22;99088.19;5048154;28;20060;-91
2023/12/04 07:27:58;;;;;;;5.80;3.30;;;;;;;3.36;89.08;99100.56;5046827;28;20041;-91
2023/12/04 07:30:27;;;;;;;11.50;4.38;;;;;;;3.77;88.33;99177.94;5047190;28;20041;-93
2023/12/04 07:33:00;;;;;;;9.73;3.70;;;;;;;3.09;89.18;99073.19;5047885;28;20048;-93
2023/12/04 07:35:31;;;;;;;10.65;4.43;;;;;;;3.14;88.67;99085.47;5048317;28;20052;-92
2023/12/04 07:38:21;;;;;;;8.30;4.22;;;;;;;3.99;86.89;99164.06;5053051;28;20061;-92
2023/12/04 07:40:51;;;;;;;9.68;3.30;;;;;;;3.97;85.58;99133.34;5048414;28;20560;-93
2023/12/04 07:43:28;;;;;;;19.17;5.13;;;;;;;3.61;85.14;99072.66;5048457;28;20040;-92
2023/12/04 07:46:14;;;;;;;7.45;3.15;;;;;;;3.68;85.32;99077.06;5066034;28;20063;-92
2023/12/04 07:49:03;;;;;;;7.75;3.70;;;;;;;3.75;84.00;99067.44;5065426;28;20037;-93
2023/12/04 07:51:43;;;;;;;11.48;3.97;;;;;;;5.04;82.91;99286.56;5032697;28;20052;-92
2023/12/04 07:54:18;;;;;;;10.40;3.88;;;;;;;3.86;82.52;99086.81;5031258;28;20050;-93
2023/12/04 07:56:49;;;;;;;7.60;3.33;;;;;;;4.15;82.18;99107.13;5031532;28;20046;-91
2023/12/04 07:59:18;;;;;;;7.22;3.17;;;;;;;4.37;81.40;99123.00;5037056;28;20049;-94
2023/12/04 08:01:56;;;;;;;8.07;3.17;;;;;;;4.44;80.78;99130.91;5024095;28;20042;-93
2023/12/04 08:04:30;;;;;;;8.50;4.95;;;;;;;4.66;78.64;99149.41;5015933;28;20046;-91
2023/12/04 08:06:59;;;;;;;11.82;5.50;;;;;;;5.45;79.33;99298.97;5025361;28;20071;-93
2023/12/04 08:09:27;;;;;;;12.13;5.45;;;;;;;5.21;80.05;99248.84;5040271;28;20481;-93
2023/12/04 08:11:58;;;;;;;;;;;;;;;5.43;79.59;99307.78;5034735;28;20065;-91
2023/12/04 08:14:27;;;;;;;9.48;2.95;;;;;;;4.49;79.60;99139.72;5029089;28;19924;-92
2023/12/04 08:16:59;;;;;;;9.55;3.78;;;;;;;4.68;78.32;99135.41;5032248;28;20038;-92
2023/12/04 08:19:37;;;;;;;11.30;3.40;;;;;;;5.15;77.48;99216.28;5039212;28;20061;-92
2023/12/04 08:22:04;;;;;;;9.60;3.15;;;;;;;4.70;77.30;99117.81;5036335;28;20064;-93
2023/12/04 08:24:37;;;;;;;7.30;3.20;;;;;;;5.24;76.65;99194.34;5050613;28;20049;-93
2023/12/04 08:27:11;;;;;;;8.45;3.22;;;;;;;5.54;76.47;99217.22;5036693;28;20073;-92
2023/12/04 08:29:45;;;;;;;9.38;4.30;;;;;;;5.92;76.22;99274.41;5027201;28;20100;-94
2023/12/04 08:32:22;;;;;;;;;;;;;;;;;;;;;
2023/12/04 08:34:50;;;;;;;7.70;3.33;;;;;;;6.13;73.39;99262.09;5048287;28;20132;-92
2023/12/04 08:37:18;;;;;;;7.70;4.00;;;;;;;5.34;73.68;99131.94;5034736;28;20041;-93
2023/12/04 08:39:50;;;;;;;10.18;3.35;;;;;;;5.34;73.94;99134.59;5034959;28;20038;-93
2023/12/04 08:42:21;;;;;;;5.95;3.58;;;;;;;6.09;74.19;99252.41;5034663;28;20037;-92
2023/12/04 08:44:52;;;;;;;10.32;2.88;;;;;;;6.16;73.57;99293.78;5045590;28;20064;-93
2023/12/04 08:47:51;;;;;;;9.32;3.67;;;;;;;5.04;73.49;99109.97;5028297;28;20057;-92
2023/12/04 08:54:16;;;;;;;7.50;3.97;;;;;;;6.20;74.12;99253.25;4952921;28;20042;-92
2023/12/04 09:00:54;;;;;;;7.05;3.03;;;;;;;5.28;73.00;99105.56;4881593;29;20048;-92
2023/12/04 09:04:29;;;;;;;5.47;2.53;;;;;;;5.65;71.59;99158.28;4850269;29;20077;-92
2023/12/04 09:07:10;;;;;;;5.55;2.65;;;;;;;5.45;71.57;99113.47;4832766;29;20074;-92
2023/12/04 09:23:59;;;;;;;11.65;3.58;;;;;;;6.46;71.50;99236.47;4751802;30;20099;-94
2023/12/04 09:30:37;;;;;;;9.35;3.97;;;;;;;5.96;72.25;99149.50;4780958;30;20164;-93
2023/12/04 09:33:18;;;;;;;8.23;4.18;;;;;;;6.25;72.53;99185.50;4768561;29;20052;-93
2023/12/04 09:43:50;;;;;;;13.52;4.85;;;;;;;7.11;71.53;99263.53;4775638;30;20043;-93
2023/12/04 09:50:39;;;;;;;7.60;3.85;;;;;;;6.01;71.52;99069.38;4747134;30;20072;-93
2023/12/04 09:53:11;;;;;;;11.65;4.40;;;;;;;6.08;71.26;99068.50;4822876;29;20117;-94
2023/12/04 09:56:14;;;;;;;11.25;4.80;;;;;;;7.16;71.54;99253.81;4857719;29;20057;-92
2023/12/04 10:03:04;;;;;;;9.32;4.55;;;;;;;7.19;73.09;99227.34;4873735;29;20041;-94
2023/12/04 10:05:49;;;;;;;11.20;4.32;;;;;;;6.67;72.59;99116.63;4956248;29;20031;-94
2023/12/04 10:08:23;;;;;;;12.68;4.35;;;;;;;6.99;71.67;99150.78;4943740;29;20051;-93
2023/12/04 10:10:55;;;;;;;7.18;3.30;;;;;;;7.60;70.73;99219.13;4942776;29;20110;-94
2023/12/04 10:13:21;;;;;;;9.23;4.18;;;;;;;7.40;70.66;99155.78;4955059;29;20056;-94
2023/12/04 10:15:48;;;;;;;6.00;3.35;;;;;;;6.83;69.41;99044.28;4955924;28;20062;-93
2023/12/04 10:18:36;;;;;;;7.75;3.42;;;;;;;6.80;69.39;99012.56;4972574;28;20045;-93
2023/12/04 10:21:08;;;;;;;6.93;2.92;;;;;;;6.79;68.43;99009.06;4978790;28;20050;-94
2023/12/04 10:24:05;;;;;;;8.43;3.75;;;;;;;7.88;69.30;99187.13;4988718;28;20090;-93
2023/12/04 10:26:37;;;;;;;9.43;3.53;;;;;;;6.97;69.25;99013.31;5004341;28;20046;-93
2023/12/04 10:29:05;;;;;;;22.33;3.70;;;;;;;7.03;68.23;99008.88;5027563;28;20072;-93
2023/12/04 10:54:26;;;;;;;9.38;3.78;;;;;;;8.32;67.91;99161.03;4780137;30;20058;-91
2023/12/04 10:57:14;;;;;;;10.98;4.82;;;;;;;7.87;66.84;99074.16;4779633;30;20050;-94
2023/12/04 10:59:39;;;;;;;7.53;4.05;;;;;;;7.65;67.67;99046.16;4766065;30;20051;-94
2023/12/04 11:02:05;;;;;;;14.25;4.35;;;;;;;7.99;68.23;99084.59;4773641;29;20143;-94
2023/12/04 11:04:31;;;;;;;9.73;3.97;;;;;;;8.09;67.72;99068.59;4804918;29;20105;-93
2023/12/04 11:07:05;;;;;;;10.40;4.47;;;;;;;7.72;66.37;98941.94;4788918;29;20058;-94
2023/12/04 11:09:49;;;;;;;10.02;4.43;;;;;;;7.85;67.00;98938.28;4823143;29;20045;-94
2023/12/04 11:12:25;;;;;;;10.65;4.57;;;;;;;7.98;66.15;98950.44;4891137;29;20467;-93
2023/12/04 11:15:09;;;;;;;9.40;4.40;;;;;;;7.86;65.87;98896.78;4893813;29;20048;-95
2023/12/04 11:17:51;;;;;;;15.23;5.25;;;;;;;8.18;65.22;98936.91;4917816;29;20059;-93
2023/12/04 11:20:24;;;;;;;10.18;4.90;;;;;;;8.02;65.10;98922.13;4928313;29;20142;-93
2023/12/04 11:22:54;;;;;;;7.22;4.78;;;;;;;8.72;65.02;99042.16;4927172;29;20531;-94
2023/12/04 11:25:34;;;;;;;7.00;3.58;;;;;;;8.14;64.86;98913.16;4929530;29;20078;-92
2023/12/04 11:28:04;;;;;;;6.78;3.38;;;;;;;8.37;64.91;98950.75;4930296;29;20143;-93
2023/12/04 11:30:39;;;;;;;11.50;5.68;;;;;;;8.53;64.56;98961.16;5029499;28;20045;-94
2023/12/04 11:33:15;;;;;;;22.55;9.48;;;;;;;8.21;65.04;98902.41;5027576;28;20045;-93
2023/12/04 11:35:42;;;;;;;9.25;4.53;;;;;;;8.11;65.45;98924.66;5027250;28;20053;-96
2023/12/04 11:38:32;;;;;;;;;;;;;;;;;;;;;
2023/12/04 11:41:19;;;;;;;9.20;4.25;;;;;;;7.87;65.39;98893.22;5017038;28;20117;-93
2023/12/04 11:43:54;;;;;;;11.60;4.43;;;;;;;7.58;64.65;98858.31;5027525;28;20047;-94
2023/12/04 11:46:33;;;;;;;7.85;4.43;;;;;;;7.69;64.80;98862.59;5026942;28;20061;-94
2023/12/04 11:49:30;;;;;;;7.63;3.67;;;;;;;8.09;63.84;98922.91;5023139;28;20042;-93
2023/12/04 11:52:09;;;;;;;11.00;5.03;;;;;;;8.55;64.62;98988.53;5032016;28;20076;-94
2023/12/04 11:55:04;;;;;;;10.27;4.28;;;;;;;8.63;64.60;98976.00;5043174;28;20065;-92
2023/12/04 11:57:43;;;;;;;8.18;4.45;;;;;;;8.14;64.40;98858.38;5041918;28;20052;-92
2023/12/04 12:00:52;;;;;;;8.18;3.83;;;;;;;8.17;63.47;98836.28;5038132;28;20045;-94
2023/12/04 12:06:52;;;;;;;6.97;3.42;;;;;;;8.76;61.98;98868.88;4880567;29;20131;-93
2023/12/04 12:09:22;;;;;;;6.97;3.17;;;;;;;8.93;61.81;98851.75;4958662;28;20051;-93
2023/12/04 12:11:56;;;;;;;10.48;5.85;;;;;;;8.98;60.87;98845.47;4965658;29;20540;-93
2023/12/04 12:14:28;;;;;;;6.85;4.15;;;;;;;9.05;61.06;98852.38;4978560;28;20046;-95
2023/12/04 12:17:01;;;;;;;9.63;4.55;;;;;;;9.03;60.42;98840.06;4969309;28;20102;-93
2023/12/04 12:19:33;;;;;;;7.72;3.97;;;;;;;9.88;59.11;98996.72;4984073;28;20175;-92
2023/12/04 12:22:14;;;;;;;10.90;4.50;;;;;;;8.97;59.39;98837.53;4967503;28;20050;-93
2023/12/04 12:25:02;;;;;;;9.27;5.15;;;;;;;9.00;58.96;98832.16;4968280;28;20538;-92
2023/12/04 12:28:05;;;;;;;11.50;4.80;;;;;;;8.72;58.81;98827.41;4984227;28;20043;-93
2023/12/04 12:31:14;;;;;;;10.07;4.78;;;;;;;9.27;59.74;98883.81;4964366;28;20053;-95
2023/12/04 12:34:07;;;;;;;13.02;6.03;;;;;;;9.20;60.29;98883.06;4967514;28;20051;-94
2023/12/04 12:37:38;;;;;;;;;;;;;;;;;;;;;
2023/12/04 12:40:26;;;;;;;13.85;7.45;;;;;;;8.97;61.24;98826.91;4920313;29;20071;-94
2023/12/04 12:43:35;;;;;;;10.07;4.60;;;;;;;8.92;61.63;98820.84;4965124;29;20053;-94
2023/12/04 12:46:25;;;;;;;17.00;5.97;;;;;;;8.71;62.73;98830.06;4963486;29;20046;-91
2023/12/04 12:48:57;;;;;;;12.43;6.60;;;;;;;9.47;62.90;98973.66;4923584;29;20067;-94
2023/12/04 12:55:27;;;;;;;14.70;4.50;;;;;;;9.06;64.05;98962.03;4954509;28;20110;-93
2023/12/04 12:58:02;;;;;;;8.23;4.13;;;;;;;8.23;64.44;98828.22;4946838;29;20058;-92
2023/12/04 13:00:43;;;;;;;10.02;4.05;;;;;;;9.15;65.11;98982.19;4963484;29;20047;-92
2023/12/04 13:03:50;;;;;;;11.57;4.55;;;;;;;7.92;65.28;98786.34;4963717;28;20039;-93
2023/12/04 13:06:57;;;;;;;11.80;5.10;;;;;;;8.01;65.46;98814.47;4966051;29;20071;-92
2023/12/04 13:09:49;;;;;;;15.00;6.80;;;;;;;8.00;65.29;98805.66;4960985;29;20102;-92
2023/12/04 13:12:37;;;;;;;14.32;6.65;;;;;;;8.03;65.74;98810.03;4966228;29;20114;-93
2023/12/04 13:15:21;;;;;;;13.55;5.70;;;;;;;8.68;66.16;98923.78;5047202;28;20140;-94
2023/12/04 13:17:53;;;;;;;15.25;6.60;;;;;;;8.50;65.56;98858.72;5047773;28;20041;-93
2023/12/04 13:31:38;;;;;;;13.13;5.22;;;;;;;8.74;66.94;98922.78;4910336;29;20048;-94
2023/12/04 13:34:36;;;;;;;21.52;6.03;;;;;;;8.13;66.99;98792.19;4904423;29;20045;-94
2023/12/04 13:37:08;;;;;;;14.75;7.10;;;;;;;8.97;66.22;98933.88;4890364;29;20079;-93
2023/12/04 13:39:57;;;;;;;12.77;6.80;;;;;;;8.11;65.62;98786.03;4909721;29;20044;-93
2023/12/04 13:58:44;;;;;;;14.60;7.45;;;;;;;8.21;67.40;98800.88;6138177;22;4226042;-94
2023/12/04 14:01:44;;;;;;;15.23;6.38;;;;;;;8.36;67.28;98845.66;6238806;23;20026;-91
2023/12/04 14:04:54;;;;;;;34.13;12.82;;;;;;;8.11;67.79;98796.63;6238846;23;20388;-93
2023/12/04 14:07:27;;;;;;;39.03;12.65;;;;;;;8.12;68.59;98790.47;6229187;23;20348;-94
2023/12/04 14:13:48;;;;;;;9.55;4.80;;;;;;;7.95;69.21;98773.06;6266590;23;20019;-93
2023/12/04 14:16:17;;;;;;;12.88;4.25;;;;;;;7.83;69.83;98786.50;6237934;23;20039;-93
2023/12/04 14:18:57;;;;;;;8.40;3.55;;;;;;;8.24;70.05;98877.69;6239412;23;20073;-94
2023/12/04 14:21:37;;;;;;;10.43;3.97;;;;;;;8.16;70.17;98868.97;6239448;23;20027;-92
2023/12/04 14:24:07;;;;;;;6.13;3.42;;;;;;;8.08;71.04;98907.94;6238712;23;20015;-92
2023/12/04 14:26:36;;;;;;;8.00;3.50;;;;;;;7.33;70.56;98770.50;6240129;23;20024;-93
2023/12/04 14:29:10;;;;;;;9.32;3.60;;;;;;;7.26;71.50;98763.50;6239408;23;20042;-94
2023/12/04 14:31:57;;;;;;;9.57;3.72;;;;;;;8.22;70.91;98898.03;6213946;23;20020;-92
2023/12/04 14:34:23;;;;;;;10.18;3.72;;;;;;;7.29;71.34;98768.78;6238393;23;20078;-95
2023/12/04 14:36:49;;;;;;;10.88;3.40;;;;;;;7.13;70.82;98746.06;6237974;23;20028;-93
2023/12/04 14:39:39;;;;;;;6.65;3.53;;;;;;;7.67;71.88;98870.56;6238549;23;20060;-93
2023/12/04 14:42:08;;;;;;;27.35;13.18;;;;;;;7.14;73.67;98811.31;6200481;23;20019;-93
2023/12/04 14:44:43;;;;;;;18.55;9.45;;;;;;;7.13;73.14;98760.16;6242526;23;20050;-94
2023/12/04 14:47:16;;;;;;;9.30;4.68;;;;;;;7.92;72.30;98865.78;6240275;23;20016;-93
2023/12/04 14:49:43;;;;;;;9.43;4.80;;;;;;;7.34;72.86;98764.28;6210403;23;20026;-94
2023/12/04 14:52:22;;;;;;;18.23;6.40;;;;;;;7.63;73.20;98802.69;6211124;23;20020;-93